CheckWX is a tool to help pilots better visualize weather data.  It is not intended as a substitute for an official pre-flight weather briefing.

04:54:29 UTC

8A3 METAR
Livingston Municipal Airport
Livingston, Tennessee, USA
Current

19 mins ago

K8A3 260435Z AUTO 19005KT 9SM SCT019 OVC026 22/20 A3002 RMK A01
Observed
Aug-26 @ 04:35 UTC
Wind
  • 190° at 5 KTS
Visibility
9 SM
Flight Rules
MVFR
Cloud Levels
  • Scattered at 1,900' AGL
  • Overcast at 2,600' AGL
Temperature
22°C / 72°F
Dewpoint
20°C / 68°F
Humidity
88%
Altimeter
30.02" Hg
Pressure
1016.62 hPa
Previous

39 mins ago

K8A3 260415Z AUTO 20005KT 9SM BKN017 OVC027 22/20 A3003 RMK A01
Observed
Aug-26 @ 04:15 UTC
Wind
  • 200° at 5 KTS
Visibility
9 SM
Flight Rules
MVFR
Cloud Levels
  • Broken at 1,700' AGL
  • Overcast at 2,700' AGL
Temperature
22°C / 72°F
Dewpoint
20°C / 68°F
Humidity
88%
Altimeter
30.03" Hg
Pressure
1016.92 hPa
Previous

59 mins ago

K8A3 260355Z AUTO 20004KT 10SM BKN016 OVC029 22/20 A3003 RMK A01
Observed
Aug-26 @ 03:55 UTC
Wind
  • 200° at 4 KTS
Visibility
10 SM
Flight Rules
MVFR
Cloud Levels
  • Broken at 1,600' AGL
  • Overcast at 2,900' AGL
Temperature
22°C / 72°F
Dewpoint
20°C / 68°F
Humidity
88%
Altimeter
30.03" Hg
Pressure
1016.92 hPa